CDT,Max TemperatureF,Mean TemperatureF,Min TemperatureF,Max Dew PointF,MeanDew PointF,Min DewpointF,Max Humidity, Mean Humidity, Min Humidity, Max Sea Level PressureIn, Mean Sea Level PressureIn, Min Sea Level PressureIn, Max VisibilityMiles, Mean VisibilityMiles, Min VisibilityMiles, Max Wind SpeedMPH, Mean Wind SpeedMPH, Max Gust SpeedMPH,PrecipitationIn, CloudCover, Events, WindDirDegrees
2012-10-1,81,70,60,54,51,46,75,57,31,29.88,29.83,29.79,10,10,10,17,8,24,0.00,0,,341
2012-10-2,77,65,52,49,45,40,80,54,27,29.97,29.92,29.88,10,9,2,10,7,20,0.00,0,,338
2012-10-3,81,63,45,52,47,43,93,63,30,30.00,29.95,29.90,10,10,7,16,4,23,0.00,0,,175
2012-10-4,75,62,51,56,51,43,87,68,49,30.21,30.12,29.99,10,10,8,17,7,,0.02,5,Rain,17
2012-10-5,55,47,39,46,42,35,89,74,49,30.31,30.22,30.19,10,10,7,18,12,26,0.10,6,Rain,27
2012-10-6,50,44,39,40,35,27,89,69,47,30.37,30.32,30.28,10,10,10,14,5,,0.01,6,Rain,360
2012-10-7,57,45,33,32,29,25,89,56,29,30.36,30.29,30.20,10,10,10,8,5,,0.00,1,,280
2012-10-8,64,48,32,38,34,30,96,64,33,30.23,30.14,30.03,10,10,4,17,8,23,0.00,0,,180
2012-10-9,66,54,42,54,47,36,85,69,55,30.12,29.98,29.91,10,10,10,20,9,28,0.00,5,,172
2012-10-10,68,52,39,42,34,27,89,52,24,30.30,30.21,30.14,10,10,10,12,6,,0.00,0,,61
2012-10-11,78,66,55,64,50,39,75,57,51,30.14,30.09,30.00,10,10,8,17,5,21,0.00,7,,165
2012-10-12,71,66,60,67,62,59,100,90,76,30.22,30.14,30.05,10,8,2,20,9,24,0.39,7,Rain-Thunderstorm,74
2012-10-13,73,68,64,70,66,61,94,89,78,29.97,29.80,29.68,10,6,1,24,15,37,0.22,6,Rain-Thunderstorm,179
2012-10-14,75,65,54,64,51,42,93,65,31,30.05,29.89,29.64,10,10,10,17,11,25,0.01,1,,279
2012-10-15,86,66,48,52,48,44,93,61,24,30.05,29.96,29.85,10,10,9,10,5,,0.00,0,,196
2012-10-16,81,69,57,53,50,48,75,54,32,29.85,29.70,29.57,10,10,10,21,12,31,0.00,0,,180
2012-10-17,73,64,53,64,51,34,88,63,29,29.77,29.56,29.43,10,10,9,23,12,36,0.00,4,Rain,267
2012-10-18,68,59,50,35,27,23,54,32,18,29.85,29.80,29.76,10,9,5,25,12,37,0.00,3,,284
2012-10-19,66,56,43,42,35,29,89,47,33,29.88,29.83,29.77,10,10,10,18,11,29,0.00,0,,295
2012-10-20,79,59,39,53,44,36,93,66,31,29.87,29.80,29.71,10,10,10,10,3,,0.00,0,,156
2012-10-21,82,71,61,68,63,52,81,72,63,29.79,29.76,29.72,10,10,10,21,11,29,0.00,5,,163
2012-10-22,82,75,68,68,66,62,87,75,60,29.86,29.81,29.76,10,10,10,25,18,37,0.00,3,Rain,181
2012-10-23,82,75,70,67,66,65,87,76,61,29.86,29.81,29.74,10,10,10,23,16,33,0.00,4,,181
2012-10-24,84,76,69,67,64,60,81,69,54,29.86,29.80,29.72,10,10,10,22,16,33,0.00,0,,177
2012-10-25,72,58,44,64,47,35,88,76,62,30.25,29.95,29.68,10,9,2,24,18,33,0.01,6,Rain,330
2012-10-26,50,44,35,33,29,28,79,63,44,30.46,30.38,30.28,10,10,10,23,13,34,0.00,3,,11
2012-10-27,53,40,28,30,27,25,88,65,39,30.43,30.34,30.25,10,10,9,12,6,,0.00,0,,15
2012-10-28,57,42,28,32,28,25,89,63,32,30.37,30.30,30.25,10,10,5,7,3,,0.00,0,,58
2012-10-29,64,49,35,34,31,27,85,58,26,30.34,30.24,30.11,10,9,2,12,3,,0.00,2,,156
2012-10-30,71,54,37,42,36,31,76,58,30,30.10,30.00,29.91,10,10,10,14,3,,0.00,1,,118
2012-10-31,68,52,37,37,32,28,76,50,26,30.10,30.04,29.99,10,9,2,8,4,,0.00,0,,16